Time;durP1;ratioP1;P1;durP2;ratioP2;P2;SDS_P1;SDS_P2;PMS_P1;PMS_P2;Temp;Humidity;BMP_temperature;BMP_pressure;BME280_temperature;BME280_humidity;BME280_pressure;Samples;Min_cycle;Max_cycle;Signal;HPM_P1;HPM_P2
2022/04/16 00:00:07;;;;;;;32.13;5.38;;;;;;;;;;5007058;28;20044;-41
2022/04/16 00:02:34;;;;;;;23.50;5.68;;;;;;;;;;5012162;28;20037;-41
2022/04/16 00:05:02;;;;;;;19.00;4.78;;;;;;;;;;5011739;28;20022;-42
2022/04/16 00:07:29;;;;;;;24.13;4.82;;;;;;;;;;5011985;28;20030;-44
2022/04/16 00:09:56;;;;;;;26.85;5.13;;;;;;;;;;5012768;28;20030;-39
2022/04/16 00:12:23;;;;;;;23.50;5.03;;;;;;;;;;5010869;28;20120;-40
2022/04/16 00:14:50;;;;;;;20.48;4.85;;;;;;;;;;5012625;28;20044;-40
2022/04/16 00:17:17;;;;;;;19.67;4.70;;;;;;;;;;5012482;28;20049;-40
2022/04/16 00:19:44;;;;;;;21.48;4.70;;;;;;;;;;5012736;28;20038;-40
2022/04/16 00:22:12;;;;;;;22.67;5.22;;;;;;;;;;5013083;28;20053;-42
2022/04/16 00:24:50;;;;;;;24.33;5.35;;;;;;;;;;5012121;28;20518;-42
2022/04/16 00:27:17;;;;;;;17.48;4.20;;;;;;;;;;5011907;28;20056;-46
2022/04/16 00:29:44;;;;;;;30.35;4.88;;;;;;;;;;5012119;28;20026;-43
2022/04/16 00:32:11;;;;;;;19.40;4.30;;;;;;;;;;5012714;28;20055;-40
2022/04/16 00:34:38;;;;;;;20.90;5.43;;;;;;;;;;5006847;28;20037;-40
2022/04/16 00:37:06;;;;;;;24.30;4.53;;;;;;;;;;5012337;28;20547;-41
2022/04/16 00:39:33;;;;;;;25.40;4.55;;;;;;;;;;5012306;28;20077;-40
2022/04/16 00:42:01;;;;;;;23.05;4.35;;;;;;;;;;5011737;28;20412;-41
2022/04/16 00:44:28;;;;;;;23.42;4.90;;;;;;;;;;4991654;28;20521;-40
2022/04/16 00:46:55;;;;;;;21.70;4.65;;;;;;;;;;4990888;28;20038;-40
2022/04/16 00:49:23;;;;;;;28.23;5.43;;;;;;;;;;5008626;28;20033;-41
2022/04/16 00:51:50;;;;;;;23.88;4.85;;;;;;;;;;5011588;28;20048;-43
2022/04/16 00:54:18;;;;;;;22.70;4.90;;;;;;;;;;5011660;28;20392;-43
2022/04/16 00:56:45;;;;;;;20.45;3.95;;;;;;;;;;5010654;28;20459;-41
2022/04/16 00:59:13;;;;;;;21.50;4.53;;;;;;;;;;5010159;28;20048;-39
2022/04/16 01:01:40;;;;;;;19.33;4.55;;;;;;;;;;5010546;28;20037;-44
2022/04/16 01:04:07;;;;;;;21.92;4.45;;;;;;;;;;5010489;28;20029;-43
2022/04/16 01:06:48;;;;;;;20.70;4.40;;;;;;;;;;4991730;28;20097;-40
2022/04/16 01:09:16;;;;;;;26.55;4.85;;;;;;;;;;5011330;28;20491;-40
2022/04/16 01:11:43;;;;;;;18.25;4.22;;;;;;;;;;5011070;28;20087;-40
2022/04/16 01:14:10;;;;;;;16.25;4.05;;;;;;;;;;5008456;28;20404;-40
2022/04/16 01:16:37;;;;;;;21.02;5.20;;;;;;;;;;5011649;28;20022;-40
2022/04/16 01:19:10;;;;;;;23.15;4.95;;;;;;;;;;5011602;28;20040;-42
2022/04/16 01:21:37;;;;;;;23.73;5.10;;;;;;;;;;5011187;28;20113;-41
2022/04/16 01:24:05;;;;;;;16.45;4.85;;;;;;;;;;5011791;28;20022;-40
2022/04/16 01:26:32;;;;;;;16.23;4.53;;;;;;;;;;5007728;28;20041;-40
2022/04/16 01:29:01;;;;;;;24.63;4.75;;;;;;;;;;5011631;28;20036;-42
2022/04/16 01:31:30;;;;;;;18.67;4.88;;;;;;;;;;4992465;28;20105;-42
2022/04/16 01:33:57;;;;;;;19.83;4.57;;;;;;;;;;4994153;28;20034;-40
2022/04/16 01:36:25;;;;;;;19.08;5.03;;;;;;;;;;5011548;28;20360;-42
2022/04/16 01:38:53;;;;;;;34.67;5.90;;;;;;;;;;5011975;28;20092;-40
2022/04/16 01:41:20;;;;;;;20.02;4.78;;;;;;;;;;5011672;28;20046;-40
2022/04/16 01:43:47;;;;;;;21.90;4.65;;;;;;;;;;5011904;28;20030;-43
2022/04/16 01:46:13;;;;;;;22.35;4.50;;;;;;;;;;5010638;28;20040;-42
2022/04/16 01:48:41;;;;;;;25.30;5.10;;;;;;;;;;5011117;28;20092;-41
2022/04/16 01:51:08;;;;;;;25.58;6.18;;;;;;;;;;5011432;28;20361;-41
2022/04/16 01:53:36;;;;;;;19.83;4.57;;;;;;;;;;4993665;28;20120;-40
2022/04/16 01:56:03;;;;;;;30.92;5.57;;;;;;;;;;5010963;28;20404;-41
2022/04/16 01:58:31;;;;;;;30.52;4.60;;;;;;;;;;5010965;28;20377;-41
2022/04/16 02:00:58;;;;;;;16.58;4.50;;;;;;;;;;5011551;28;20585;-40
2022/04/16 02:03:27;;;;;;;21.50;4.95;;;;;;;;;;5011105;28;20472;-40
2022/04/16 02:05:54;;;;;;;24.52;4.35;;;;;;;;;;5005685;28;20099;-38
2022/04/16 02:08:21;;;;;;;18.92;3.78;;;;;;;;;;5009684;28;20164;-40
2022/04/16 02:10:48;;;;;;;21.27;3.63;;;;;;;;;;5009933;28;20063;-43
2022/04/16 02:13:15;;;;;;;12.18;3.22;;;;;;;;;;5010584;28;20033;-38
2022/04/16 02:15:42;;;;;;;15.90;3.67;;;;;;;;;;5010276;28;20054;-40
2022/04/16 02:18:10;;;;;;;15.10;3.85;;;;;;;;;;5010564;28;20030;-40
2022/04/16 02:20:38;;;;;;;17.67;3.65;;;;;;;;;;5010199;28;20034;-40
2022/04/16 02:23:05;;;;;;;20.75;3.95;;;;;;;;;;5010759;28;20042;-42
2022/04/16 02:25:33;;;;;;;15.77;3.78;;;;;;;;;;5010968;28;20057;-42
2022/04/16 02:28:00;;;;;;;22.95;5.25;;;;;;;;;;5010385;28;20065;-41
2022/04/16 02:30:30;;;;;;;23.00;6.57;;;;;;;;;;5010304;28;20383;-37
2022/04/16 02:32:58;;;;;;;22.67;6.53;;;;;;;;;;5010917;28;20535;-40
2022/04/16 02:35:25;;;;;;;30.45;9.75;;;;;;;;;;5010986;28;20032;-38
2022/04/16 02:37:52;;;;;;;32.22;10.88;;;;;;;;;;5015137;28;20673;-40
2022/04/16 02:40:19;;;;;;;38.40;13.43;;;;;;;;;;5014218;28;20129;-41
2022/04/16 02:42:47;;;;;;;37.72;15.27;;;;;;;;;;5014619;28;20122;-41
2022/04/16 02:48:01;;;;;;;45.35;17.45;;;;;;;;;;5014947;28;20044;-42
2022/04/16 02:50:29;;;;;;;39.38;15.90;;;;;;;;;;5013246;28;20030;-45
2022/04/16 02:52:58;;;;;;;44.28;17.63;;;;;;;;;;5013551;28;20468;-43
2022/04/16 02:55:25;;;;;;;44.10;19.05;;;;;;;;;;5014626;28;20510;-42
2022/04/16 02:57:52;;;;;;;48.42;19.92;;;;;;;;;;5014048;28;20439;-41
2022/04/16 03:00:20;;;;;;;53.60;20.35;;;;;;;;;;5014237;28;20042;-43
2022/04/16 03:02:48;;;;;;;43.83;19.02;;;;;;;;;;5014077;28;20060;-40
2022/04/16 03:05:15;;;;;;;44.72;18.15;;;;;;;;;;5014464;28;20037;-39
2022/04/16 03:07:42;;;;;;;48.15;18.83;;;;;;;;;;5014521;28;20037;-46
2022/04/16 03:10:10;;;;;;;52.85;19.45;;;;;;;;;;5014567;28;20942;-41
2022/04/16 03:12:46;;;;;;;41.72;18.05;;;;;;;;;;5013116;28;20018;-46
2022/04/16 03:17:59;;;;;;;42.00;16.77;;;;;;;;;;5007096;28;20458;-40
2022/04/16 03:20:27;;;;;;;37.22;16.40;;;;;;;;;;5014235;28;20041;-43
2022/04/16 03:22:55;;;;;;;37.10;16.02;;;;;;;;;;5013507;28;20033;-44
2022/04/16 03:25:22;;;;;;;42.63;17.92;;;;;;;;;;5013260;28;20030;-42
2022/04/16 03:27:49;;;;;;;36.60;15.75;;;;;;;;;;5014001;28;20065;-41
2022/04/16 03:30:16;;;;;;;35.53;14.60;;;;;;;;;;5013866;28;20049;-38
2022/04/16 03:32:43;;;;;;;36.15;14.57;;;;;;;;;;5014194;28;20073;-41
2022/04/16 03:35:10;;;;;;;35.20;13.80;;;;;;;;;;5013166;28;20484;-45
2022/04/16 03:37:37;;;;;;;33.17;12.93;;;;;;;;;;5013476;28;20045;-43
2022/04/16 03:40:06;;;;;;;34.55;12.68;;;;;;;;;;5013972;28;20036;-39
2022/04/16 03:42:34;;;;;;;34.10;14.05;;;;;;;;;;5014394;28;20029;-41
2022/04/16 03:45:01;;;;;;;29.25;12.27;;;;;;;;;;5013199;28;20034;-43
2022/04/16 03:47:28;;;;;;;26.88;11.15;;;;;;;;;;5013121;28;20029;-41
2022/04/16 03:49:58;;;;;;;33.95;12.05;;;;;;;;;;5014051;28;20037;-42
2022/04/16 03:52:25;;;;;;;27.63;11.43;;;;;;;;;;4994695;28;20037;-44
2022/04/16 04:00:45;;;;;;;25.95;10.93;;;;;;;;;;4953640;29;20085;-45
2022/04/16 04:03:12;;;;;;;26.77;10.88;;;;;;;;;;4986699;28;20066;-45
2022/04/16 04:05:40;;;;;;;27.55;9.98;;;;;;;;;;4988275;28;20404;-44
2022/04/16 04:08:08;;;;;;;23.02;9.70;;;;;;;;;;5014454;28;20022;-43
2022/04/16 04:10:36;;;;;;;28.55;9.23;;;;;;;;;;5014680;28;20376;-43
2022/04/16 04:13:03;;;;;;;27.42;8.80;;;;;;;;;;5014405;28;20018;-43
2022/04/16 04:15:31;;;;;;;23.35;9.10;;;;;;;;;;5014523;28;20025;-43
2022/04/16 04:18:01;;;;;;;19.40;8.05;;;;;;;;;;5014367;28;20026;-43
2022/04/16 04:20:29;;;;;;;25.98;9.40;;;;;;;;;;5014183;28;20442;-43
2022/04/16 04:22:56;;;;;;;19.40;8.15;;;;;;;;;;5014553;28;20492;-43
2022/04/16 04:25:23;;;;;;;18.73;8.27;;;;;;;;;;5014177;28;20040;-43
2022/04/16 04:27:50;;;;;;;22.08;8.52;;;;;;;;;;5014236;28;20022;-43
2022/04/16 04:30:17;;;;;;;19.40;7.10;;;;;;;;;;5014273;28;20028;-43
2022/04/16 04:32:44;;;;;;;24.77;8.07;;;;;;;;;;5014191;28;20066;-43
2022/04/16 04:35:11;;;;;;;17.15;8.18;;;;;;;;;;5014235;28;20042;-43
2022/04/16 04:37:38;;;;;;;19.80;7.70;;;;;;;;;;5014204;28;20037;-43
2022/04/16 04:40:06;;;;;;;16.73;7.43;;;;;;;;;;5014157;28;20034;-43
2022/04/16 04:42:33;;;;;;;18.75;7.35;;;;;;;;;;5014033;28;20065;-43
2022/04/16 04:45:06;;;;;;;17.20;7.40;;;;;;;;;;5014020;28;20041;-43
2022/04/16 04:47:33;;;;;;;17.25;6.90;;;;;;;;;;5013962;28;20025;-43
2022/04/16 04:50:00;;;;;;;17.65;6.95;;;;;;;;;;5014035;28;20049;-43
2022/04/16 04:52:29;;;;;;;18.38;6.95;;;;;;;;;;5013789;28;20080;-43
2022/04/16 04:54:56;;;;;;;21.83;6.65;;;;;;;;;;5013828;28;20083;-43
2022/04/16 04:57:23;;;;;;;16.55;6.65;;;;;;;;;;5013730;28;20549;-43
2022/04/16 04:59:50;;;;;;;17.70;6.40;;;;;;;;;;5012911;28;20097;-43
2022/04/16 05:02:17;;;;;;;14.23;6.15;;;;;;;;;;5013775;28;20022;-43
2022/04/16 05:04:45;;;;;;;13.35;5.70;;;;;;;;;;5013708;28;20034;-43
2022/04/16 05:07:12;;;;;;;18.38;6.55;;;;;;;;;;5013637;28;20022;-43
2022/04/16 05:09:39;;;;;;;18.55;6.35;;;;;;;;;;5013530;28;20026;-43
2022/04/16 05:12:07;;;;;;;14.80;6.00;;;;;;;;;;5013627;28;20022;-42
2022/04/16 05:14:40;;;;;;;12.88;6.05;;;;;;;;;;5013878;28;20018;-43
2022/04/16 05:17:07;;;;;;;15.55;5.90;;;;;;;;;;4992617;28;20030;-41
2022/04/16 05:19:34;;;;;;;11.73;5.63;;;;;;;;;;5012729;28;20026;-41
2022/04/16 05:22:00;;;;;;;13.80;5.30;;;;;;;;;;5013329;28;20054;-41
2022/04/16 05:24:27;;;;;;;15.05;6.47;;;;;;;;;;5013464;28;20053;-41
2022/04/16 05:26:54;;;;;;;15.02;5.55;;;;;;;;;;5013363;28;20026;-42
2022/04/16 05:29:22;;;;;;;9.90;5.05;;;;;;;;;;5013359;28;20034;-42
2022/04/16 05:31:49;;;;;;;9.23;5.03;;;;;;;;;;5013286;28;20060;-41
2022/04/16 05:34:19;;;;;;;13.57;5.18;;;;;;;;;;5013267;28;20060;-41
2022/04/16 05:36:48;;;;;;;11.88;5.65;;;;;;;;;;5013078;28;20022;-41
2022/04/16 05:39:15;;;;;;;13.43;5.47;;;;;;;;;;5013124;28;20579;-41
2022/04/16 05:41:42;;;;;;;11.20;5.20;;;;;;;;;;5013136;28;20026;-44
2022/04/16 05:44:09;;;;;;;12.00;5.45;;;;;;;;;;5013258;28;20391;-43
2022/04/16 05:46:36;;;;;;;11.30;5.20;;;;;;;;;;5012933;28;20045;-43
2022/04/16 05:49:03;;;;;;;11.02;5.40;;;;;;;;;;5013103;28;20384;-43
2022/04/16 05:51:31;;;;;;;10.23;4.57;;;;;;;;;;5013005;28;20700;-43
2022/04/16 05:53:58;;;;;;;10.10;4.53;;;;;;;;;;5012814;28;20480;-43
2022/04/16 05:56:25;;;;;;;13.38;4.90;;;;;;;;;;5012851;28;20022;-43
2022/04/16 05:58:52;;;;;;;11.77;5.13;;;;;;;;;;5012383;28;20065;-43
2022/04/16 06:01:19;;;;;;;9.52;4.03;;;;;;;;;;5012758;28;20049;-43
2022/04/16 06:03:46;;;;;;;10.02;4.30;;;;;;;;;;5012722;28;20071;-43
2022/04/16 06:06:13;;;;;;;9.63;4.30;;;;;;;;;;5012707;28;20123;-43
2022/04/16 06:08:40;;;;;;;9.15;4.30;;;;;;;;;;5012669;28;20039;-42
2022/04/16 06:11:08;;;;;;;8.70;4.63;;;;;;;;;;5011886;28;20029;-43
2022/04/16 06:13:35;;;;;;;9.35;4.22;;;;;;;;;;5012653;28;20038;-42
2022/04/16 06:16:02;;;;;;;10.07;4.32;;;;;;;;;;5012524;28;20022;-42
2022/04/16 06:18:29;;;;;;;12.52;4.60;;;;;;;;;;5012538;28;20080;-42
2022/04/16 06:20:56;;;;;;;6.75;3.83;;;;;;;;;;5012545;28;20038;-42
2022/04/16 06:23:24;;;;;;;7.25;3.60;;;;;;;;;;5012545;28;20046;-44
2022/04/16 06:25:51;;;;;;;9.60;4.47;;;;;;;;;;5012445;28;20022;-42
2022/04/16 06:28:18;;;;;;;7.47;3.60;;;;;;;;;;5012482;28;20057;-43
2022/04/16 06:30:44;;;;;;;7.22;3.45;;;;;;;;;;4991604;28;20437;-43
2022/04/16 06:33:11;;;;;;;11.93;4.32;;;;;;;;;;5008804;28;20129;-42
2022/04/16 06:35:38;;;;;;;8.75;4.25;;;;;;;;;;5012195;28;20088;-43
2022/04/16 06:38:06;;;;;;;8.40;3.60;;;;;;;;;;5012353;28;20143;-43
2022/04/16 06:40:32;;;;;;;8.60;3.50;;;;;;;;;;5012319;28;20540;-43
2022/04/16 06:43:00;;;;;;;6.60;3.13;;;;;;;;;;5012400;28;20032;-42
2022/04/16 06:45:27;;;;;;;8.82;3.25;;;;;;;;;;5012364;28;20030;-43
2022/04/16 06:47:53;;;;;;;8.00;3.88;;;;;;;;;;5012301;28;20026;-43
2022/04/16 06:50:20;;;;;;;7.07;3.08;;;;;;;;;;5012392;28;20030;-43
2022/04/16 06:52:47;;;;;;;8.90;3.58;;;;;;;;;;5012284;28;20112;-42
2022/04/16 06:55:14;;;;;;;6.88;3.40;;;;;;;;;;5012207;28;20060;-43
2022/04/16 06:57:41;;;;;;;7.13;3.42;;;;;;;;;;5011917;28;20025;-43
2022/04/16 07:00:08;;;;;;;7.28;3.20;;;;;;;;;;5012106;28;20555;-43
2022/04/16 07:02:36;;;;;;;6.05;2.90;;;;;;;;;;5012270;28;20037;-43
2022/04/16 07:05:03;;;;;;;8.30;3.08;;;;;;;;;;5012107;28;20079;-43
2022/04/16 07:07:30;;;;;;;7.90;3.40;;;;;;;;;;5012023;28;20515;-43
2022/04/16 07:09:57;;;;;;;8.18;3.20;;;;;;;;;;5012185;28;20048;-43
2022/04/16 07:12:24;;;;;;;10.60;3.08;;;;;;;;;;5012047;28;20494;-43
2022/04/16 07:14:51;;;;;;;5.38;3.10;;;;;;;;;;5012004;28;20084;-43
2022/04/16 07:17:18;;;;;;;10.30;2.90;;;;;;;;;;5011987;28;20491;-43
2022/04/16 07:19:45;;;;;;;4.88;2.70;;;;;;;;;;5011906;28;20088;-43
2022/04/16 07:22:12;;;;;;;7.75;2.75;;;;;;;;;;5013389;28;20042;-42
2022/04/16 07:24:42;;;;;;;5.50;2.70;;;;;;;;;;5015549;28;20056;-43
2022/04/16 07:27:09;;;;;;;5.40;2.55;;;;;;;;;;5015288;28;20060;-43
2022/04/16 07:29:36;;;;;;;5.47;2.63;;;;;;;;;;5015539;28;20045;-43
2022/04/16 07:32:03;;;;;;;5.95;2.85;;;;;;;;;;5015458;28;20112;-43
2022/04/16 07:34:30;;;;;;;5.18;2.75;;;;;;;;;;5015374;28;20080;-43
2022/04/16 07:36:57;;;;;;;7.20;2.75;;;;;;;;;;5015136;28;20026;-43
2022/04/16 07:39:24;;;;;;;5.63;2.78;;;;;;;;;;5015296;28;20078;-43
2022/04/16 07:41:51;;;;;;;6.97;2.63;;;;;;;;;;5015268;28;20109;-43
2022/04/16 07:44:19;;;;;;;5.43;2.70;;;;;;;;;;5015310;28;20101;-42
2022/04/16 07:46:46;;;;;;;5.13;2.65;;;;;;;;;;5015076;28;20029;-43
2022/04/16 07:49:13;;;;;;;5.20;2.88;;;;;;;;;;5015174;28;20034;-43
2022/04/16 07:51:40;;;;;;;4.97;2.72;;;;;;;;;;5007203;28;20116;-43
2022/04/16 07:54:08;;;;;;;5.43;2.75;;;;;;;;;;4994177;28;20031;-43
2022/04/16 07:56:35;;;;;;;6.45;2.60;;;;;;;;;;5014261;28;20538;-43
2022/04/16 07:59:02;;;;;;;3.78;2.42;;;;;;;;;;5014716;28;20099;-43
2022/04/16 08:01:29;;;;;;;4.60;2.25;;;;;;;;;;4996117;28;20088;-43
2022/04/16 08:03:56;;;;;;;7.53;2.25;;;;;;;;;;5014900;28;20083;-43
2022/04/16 08:06:23;;;;;;;5.25;2.20;;;;;;;;;;5014648;28;20026;-43
2022/04/16 08:08:50;;;;;;;4.95;2.58;;;;;;;;;;5014715;28;20045;-43
2022/04/16 08:11:17;;;;;;;5.57;2.90;;;;;;;;;;4994498;28;20037;-43
2022/04/16 08:13:44;;;;;;;6.53;2.08;;;;;;;;;;5014656;28;20056;-42
2022/04/16 08:16:11;;;;;;;5.18;2.47;;;;;;;;;;5014433;28;20089;-43
2022/04/16 08:18:38;;;;;;;4.25;2.58;;;;;;;;;;5014623;28;20036;-45
2022/04/16 08:21:05;;;;;;;5.03;2.28;;;;;;;;;;5014419;28;20048;-44
2022/04/16 08:23:33;;;;;;;3.38;1.90;;;;;;;;;;5014408;28;20061;-44
2022/04/16 08:26:00;;;;;;;5.75;2.50;;;;;;;;;;5014556;28;20089;-44
2022/04/16 08:28:27;;;;;;;5.43;2.10;;;;;;;;;;5014293;28;20503;-44
2022/04/16 08:30:54;;;;;;;4.22;2.20;;;;;;;;;;4993511;28;20438;-44
2022/04/16 08:33:22;;;;;;;4.07;2.08;;;;;;;;;;5011105;28;20109;-44
2022/04/16 08:35:49;;;;;;;4.95;2.58;;;;;;;;;;5014412;28;20362;-44
2022/04/16 08:38:16;;;;;;;6.93;2.72;;;;;;;;;;5014221;28;20105;-44
2022/04/16 08:40:43;;;;;;;3.45;1.80;;;;;;;;;;5013965;28;20506;-44
2022/04/16 08:43:10;;;;;;;3.95;1.70;;;;;;;;;;5014165;28;20030;-44
2022/04/16 08:45:38;;;;;;;4.15;1.95;;;;;;;;;;5014145;28;20440;-44
2022/04/16 08:48:05;;;;;;;3.45;1.60;;;;;;;;;;5014051;28;20057;-44
2022/04/16 08:50:33;;;;;;;4.85;2.05;;;;;;;;;;5014018;28;20036;-44
2022/04/16 08:53:00;;;;;;;4.25;1.80;;;;;;;;;;5013980;28;20029;-44
2022/04/16 08:55:28;;;;;;;5.03;1.85;;;;;;;;;;5013699;28;20026;-44
2022/04/16 08:57:56;;;;;;;4.38;1.63;;;;;;;;;;5013782;28;20053;-45
2022/04/16 09:00:23;;;;;;;4.18;1.90;;;;;;;;;;5013903;28;20046;-44
2022/04/16 09:02:51;;;;;;;6.13;1.83;;;;;;;;;;5013836;28;20030;-44
2022/04/16 09:05:19;;;;;;;2.50;1.50;;;;;;;;;;5013657;28;20052;-45
2022/04/16 09:07:50;;;;;;;4.28;1.92;;;;;;;;;;5013944;28;20034;-44
2022/04/16 09:10:17;;;;;;;2.40;1.38;;;;;;;;;;5013718;28;20050;-44
2022/04/16 09:12:45;;;;;;;5.47;2.00;;;;;;;;;;5013643;28;20473;-45
2022/04/16 09:15:14;;;;;;;2.40;1.48;;;;;;;;;;5013366;28;20045;-44
2022/04/16 09:17:41;;;;;;;3.60;1.45;;;;;;;;;;5013191;28;20572;-44
2022/04/16 09:20:15;;;;;;;4.75;1.50;;;;;;;;;;5013419;28;20480;-44
2022/04/16 09:22:49;;;;;;;4.15;1.73;;;;;;;;;;5013412;28;20051;-44
2022/04/16 09:25:20;;;;;;;4.10;1.73;;;;;;;;;;5013153;28;20033;-44
2022/04/16 09:27:52;;;;;;;4.32;1.85;;;;;;;;;;5013457;28;20033;-44
2022/04/16 09:30:27;;;;;;;2.30;1.30;;;;;;;;;;5013615;28;20036;-44
2022/04/16 09:32:56;;;;;;;3.05;1.40;;;;;;;;;;5013199;28;20109;-44
2022/04/16 09:35:33;;;;;;;3.92;1.50;;;;;;;;;;5013150;28;20083;-44
2022/04/16 09:38:01;;;;;;;3.60;1.60;;;;;;;;;;5013159;28;20394;-44
2022/04/16 09:40:32;;;;;;;3.47;1.50;;;;;;;;;;5012955;28;20038;-44
2022/04/16 09:43:01;;;;;;;3.78;1.83;;;;;;;;;;5013188;28;20407;-45
2022/04/16 09:45:29;;;;;;;4.00;1.83;;;;;;;;;;5012789;28;20539;-44
2022/04/16 09:47:56;;;;;;;3.50;1.60;;;;;;;;;;5012958;28;20045;-44
2022/04/16 09:50:24;;;;;;;3.53;1.60;;;;;;;;;;5012759;28;20048;-44
2022/04/16 09:52:55;;;;;;;2.53;1.27;;;;;;;;;;5012954;28;20056;-44
2022/04/16 09:55:23;;;;;;;2.10;1.17;;;;;;;;;;5012771;28;20041;-44
2022/04/16 09:58:01;;;;;;;2.10;1.25;;;;;;;;;;5012538;28;20403;-44
2022/04/16 10:00:29;;;;;;;5.03;1.30;;;;;;;;;;5012482;28;20393;-44
2022/04/16 10:02:56;;;;;;;4.40;1.70;;;;;;;;;;5013017;28;20033;-45
2022/04/16 10:05:23;;;;;;;2.67;1.40;;;;;;;;;;5012681;28;20104;-44
2022/04/16 10:07:52;;;;;;;3.53;1.50;;;;;;;;;;5012735;28;20030;-45
2022/04/16 10:10:25;;;;;;;4.10;1.40;;;;;;;;;;5012557;28;20056;-45
2022/04/16 10:13:04;;;;;;;2.65;1.38;;;;;;;;;;5012418;28;20113;-44
2022/04/16 10:15:50;;;;;;;3.05;1.52;;;;;;;;;;5012465;28;20052;-44
2022/04/16 10:18:17;;;;;;;4.53;1.77;;;;;;;;;;5005520;28;20581;-44
2022/04/16 10:20:53;;;;;;;2.55;1.48;;;;;;;;;;5002448;28;20037;-44
2022/04/16 10:23:32;;;;;;;3.10;1.10;;;;;;;;;;5010090;28;20038;-44
2022/04/16 10:26:04;;;;;;;3.95;1.15;;;;;;;;;;5011982;28;20033;-43
2022/04/16 10:28:38;;;;;;;2.72;1.25;;;;;;;;;;5011929;28;20391;-43
2022/04/16 10:31:06;;;;;;;4.28;1.38;;;;;;;;;;5011155;28;20129;-43
2022/04/16 10:33:33;;;;;;;4.07;1.80;;;;;;;;;;5012271;28;20034;-43
2022/04/16 10:36:01;;;;;;;2.28;0.98;;;;;;;;;;5012194;28;20049;-43
2022/04/16 10:38:35;;;;;;;3.80;1.38;;;;;;;;;;5012486;28;20038;-43
2022/04/16 10:41:03;;;;;;;2.13;1.20;;;;;;;;;;5012160;28;20034;-43
2022/04/16 10:43:32;;;;;;;2.63;1.38;;;;;;;;;;5012230;28;20030;-43
2022/04/16 10:46:03;;;;;;;4.03;1.42;;;;;;;;;;5012015;28;20033;-43
2022/04/16 10:48:32;;;;;;;4.30;1.42;;;;;;;;;;5012231;28;20037;-43
2022/04/16 10:51:00;;;;;;;2.72;1.30;;;;;;;;;;5012214;28;20033;-43
2022/04/16 10:53:28;;;;;;;4.82;1.30;;;;;;;;;;5012177;28;20110;-43
2022/04/16 10:55:56;;;;;;;3.80;1.58;;;;;;;;;;5011965;28;20076;-42
2022/04/16 10:58:30;;;;;;;2.28;1.17;;;;;;;;;;5015372;28;20474;-43
2022/04/16 11:01:13;;;;;;;2.08;1.33;;;;;;;;;;5015769;28;20121;-43
2022/04/16 11:03:45;;;;;;;2.83;1.10;;;;;;;;;;5008040;28;20036;-43
2022/04/16 11:06:12;;;;;;;2.47;1.23;;;;;;;;;;5015889;28;20050;-43
2022/04/16 11:08:39;;;;;;;2.15;1.00;;;;;;;;;;5015847;28;20021;-43
2022/04/16 11:11:06;;;;;;;4.00;1.50;;;;;;;;;;5015854;28;20033;-43
2022/04/16 11:13:34;;;;;;;3.55;1.42;;;;;;;;;;5015810;28;20021;-43
2022/04/16 11:16:02;;;;;;;2.17;0.90;;;;;;;;;;5015569;28;20431;-42
2022/04/16 11:18:38;;;;;;;2.83;1.40;;;;;;;;;;5015553;28;20038;-43
2022/04/16 11:21:13;;;;;;;2.33;1.23;;;;;;;;;;5015594;28;20057;-42
2022/04/16 11:23:41;;;;;;;3.97;1.17;;;;;;;;;;5007438;28;20575;-43
2022/04/16 11:34:28;;;;;;;2.33;1.30;;;;;;;;;;5015490;28;20072;-42
2022/04/16 11:36:55;;;;;;;1.45;0.93;;;;;;;;;;5015177;28;20026;-43
2022/04/16 11:39:26;;;;;;;3.22;1.40;;;;;;;;;;5015021;28;20041;-44
2022/04/16 11:41:54;;;;;;;2.45;1.30;;;;;;;;;;5015134;28;20033;-44
2022/04/16 11:44:38;;;;;;;1.98;1.00;;;;;;;;;;5015125;28;20057;-44
2022/04/16 11:47:18;;;;;;;3.38;1.05;;;;;;;;;;5015013;28;20048;-44
2022/04/16 11:49:57;;;;;;;2.58;1.00;;;;;;;;;;5015180;28;20037;-44
2022/04/16 11:52:25;;;;;;;2.65;1.30;;;;;;;;;;5014882;28;20092;-45
2022/04/16 11:55:10;;;;;;;2.13;0.90;;;;;;;;;;5014899;28;20104;-45
2022/04/16 11:57:37;;;;;;;1.92;0.93;;;;;;;;;;5014634;28;20037;-44
2022/04/16 12:00:06;;;;;;;2.30;1.10;;;;;;;;;;5014781;28;20030;-44
2022/04/16 12:02:35;;;;;;;2.40;1.00;;;;;;;;;;5014841;28;20022;-44
2022/04/16 12:05:12;;;;;;;2.22;0.93;;;;;;;;;;5014703;28;20049;-44
2022/04/16 12:07:48;;;;;;;1.95;1.00;;;;;;;;;;5014113;28;20038;-44
2022/04/16 12:10:16;;;;;;;2.25;1.02;;;;;;;;;;5014250;28;20038;-44
2022/04/16 12:12:45;;;;;;;2.47;0.98;;;;;;;;;;5014349;28;20084;-42
2022/04/16 12:15:15;;;;;;;2.00;1.17;;;;;;;;;;5014437;28;20030;-43
2022/04/16 12:17:42;;;;;;;3.33;1.20;;;;;;;;;;5014550;28;20464;-42
2022/04/16 12:20:10;;;;;;;1.95;0.98;;;;;;;;;;5014470;28;20096;-42
2022/04/16 12:22:51;;;;;;;1.80;0.90;;;;;;;;;;5014434;28;20480;-43
2022/04/16 12:25:19;;;;;;;4.13;1.10;;;;;;;;;;5014381;28;20034;-43
2022/04/16 12:27:47;;;;;;;3.75;0.80;;;;;;;;;;5014517;28;20467;-43
2022/04/16 12:30:14;;;;;;;3.70;1.27;;;;;;;;;;5014230;28;20029;-42
2022/04/16 12:32:41;;;;;;;3.08;1.15;;;;;;;;;;5014425;28;20022;-43
2022/04/16 12:35:08;;;;;;;1.85;0.95;;;;;;;;;;5014265;28;20049;-42
2022/04/16 12:37:36;;;;;;;2.50;1.00;;;;;;;;;;5014225;28;20033;-42
2022/04/16 12:40:03;;;;;;;1.98;1.02;;;;;;;;;;5012885;28;20061;-44
2022/04/16 12:42:30;;;;;;;2.40;1.20;;;;;;;;;;5013811;28;20030;-43
2022/04/16 12:44:57;;;;;;;2.45;1.17;;;;;;;;;;5013884;28;20395;-43
2022/04/16 12:47:24;;;;;;;1.45;1.00;;;;;;;;;;5013770;28;20421;-43
2022/04/16 12:49:51;;;;;;;2.47;0.98;;;;;;;;;;5013712;28;20075;-42
2022/04/16 12:52:18;;;;;;;2.53;1.20;;;;;;;;;;5013734;28;20018;-42
2022/04/16 12:54:45;;;;;;;2.78;1.10;;;;;;;;;;5013515;28;20033;-43
2022/04/16 12:57:12;;;;;;;4.30;1.08;;;;;;;;;;5013369;28;20037;-43
2022/04/16 12:59:39;;;;;;;3.53;0.98;;;;;;;;;;5013409;28;20048;-42
2022/04/16 13:02:05;;;;;;;1.80;0.90;;;;;;;;;;5013345;28;20025;-42
2022/04/16 13:04:33;;;;;;;2.42;1.10;;;;;;;;;;5013383;28;20052;-43
2022/04/16 13:07:00;;;;;;;2.90;1.10;;;;;;;;;;5013267;28;20440;-42
2022/04/16 13:09:27;;;;;;;2.80;0.98;;;;;;;;;;5011505;28;20030;-44
2022/04/16 13:11:54;;;;;;;4.22;1.13;;;;;;;;;;5011856;28;20026;-43
2022/04/16 13:14:22;;;;;;;6.47;1.15;;;;;;;;;;5012669;28;20021;-43
2022/04/16 13:16:49;;;;;;;3.33;1.33;;;;;;;;;;5012488;28;20041;-43
2022/04/16 13:19:16;;;;;;;4.97;1.33;;;;;;;;;;5011750;28;20112;-45
2022/04/16 13:21:44;;;;;;;7.32;1.65;;;;;;;;;;5012725;28;20598;-44
2022/04/16 13:24:11;;;;;;;7.20;1.42;;;;;;;;;;5012152;28;20088;-45
2022/04/16 13:26:39;;;;;;;2.90;1.15;;;;;;;;;;5012126;28;20026;-44
2022/04/16 13:29:05;;;;;;;3.35;1.63;;;;;;;;;;5012619;28;20049;-44
2022/04/16 13:31:34;;;;;;;3.90;1.50;;;;;;;;;;5012434;28;20108;-44
2022/04/16 13:34:02;;;;;;;5.97;1.50;;;;;;;;;;5011898;28;20076;-44
2022/04/16 13:36:29;;;;;;;6.32;1.70;;;;;;;;;;5012557;28;20034;-44
2022/04/16 13:38:56;;;;;;;4.05;1.77;;;;;;;;;;5012247;28;20033;-45
2022/04/16 13:41:39;;;;;;;6.40;1.70;;;;;;;;;;5011806;28;20571;-42
2022/04/16 13:44:16;;;;;;;6.03;2.08;;;;;;;;;;5012139;28;20026;-47
2022/04/16 13:46:45;;;;;;;6.70;2.33;;;;;;;;;;5011876;28;20037;-46
2022/04/16 13:49:12;;;;;;;8.40;1.95;;;;;;;;;;5011912;28;20033;-43
2022/04/16 13:51:39;;;;;;;6.63;2.15;;;;;;;;;;5012283;28;20075;-43
2022/04/16 13:54:09;;;;;;;7.88;2.15;;;;;;;;;;5011894;28;20026;-43
2022/04/16 13:56:39;;;;;;;8.48;1.98;;;;;;;;;;5011507;28;20029;-43
2022/04/16 13:59:07;;;;;;;6.65;1.98;;;;;;;;;;5011813;28;20377;-43
2022/04/16 14:01:34;;;;;;;10.50;2.00;;;;;;;;;;5011973;28;20072;-44
2022/04/16 14:04:02;;;;;;;7.30;2.30;;;;;;;;;;5011509;28;20030;-42
2022/04/16 14:06:29;;;;;;;7.38;1.85;;;;;;;;;;5010354;28;20509;-41
2022/04/16 14:08:57;;;;;;;7.03;1.77;;;;;;;;;;5011861;28;20026;-41
2022/04/16 14:11:24;;;;;;;7.93;2.40;;;;;;;;;;5003641;28;20022;-47
2022/04/16 14:13:51;;;;;;;8.45;1.80;;;;;;;;;;5008972;28;20036;-43
2022/04/16 14:16:19;;;;;;;13.20;2.25;;;;;;;;;;5011144;28;20022;-41
2022/04/16 14:18:47;;;;;;;8.77;1.83;;;;;;;;;;5011374;28;20030;-41
2022/04/16 14:21:14;;;;;;;9.38;2.38;;;;;;;;;;5010395;28;20042;-42
2022/04/16 14:23:41;;;;;;;17.50;2.25;;;;;;;;;;5011314;28;20084;-41
2022/04/16 14:26:09;;;;;;;16.02;2.47;;;;;;;;;;5010177;28;20026;-43
2022/04/16 14:28:36;;;;;;;39.60;4.20;;;;;;;;;;5010982;28;20505;-41
2022/04/16 14:31:07;;;;;;;51.05;5.95;;;;;;;;;;5009234;28;20125;-41
2022/04/16 14:33:35;;;;;;;43.97;4.30;;;;;;;;;;5012663;28;20133;-41
2022/04/16 14:36:06;;;;;;;37.22;4.25;;;;;;;;;;5014307;28;20044;-40
2022/04/16 14:38:35;;;;;;;32.50;3.25;;;;;;;;;;5015298;28;20037;-38
2022/04/16 14:41:13;;;;;;;27.20;3.30;;;;;;;;;;5014692;28;20045;-37
2022/04/16 14:43:43;;;;;;;27.13;3.55;;;;;;;;;;5013703;28;20041;-41
2022/04/16 14:46:11;;;;;;;20.80;3.42;;;;;;;;;;5014373;28;20146;-40
2022/04/16 14:48:38;;;;;;;17.08;3.10;;;;;;;;;;5014050;28;20025;-43
2022/04/16 14:51:05;;;;;;;19.95;3.33;;;;;;;;;;5014584;28;20033;-39
2022/04/16 14:53:32;;;;;;;27.15;3.80;;;;;;;;;;5013893;28;20034;-39
2022/04/16 14:55:59;;;;;;;22.38;3.33;;;;;;;;;;5014330;28;20472;-41
2022/04/16 14:58:26;;;;;;;24.40;3.00;;;;;;;;;;5014522;28;20049;-40
2022/04/16 15:00:53;;;;;;;20.08;3.22;;;;;;;;;;5014686;28;20041;-42